createdAt,value
2022-09-07T00:00:31.533Z,10.63
2022-09-07T00:03:00.283Z,8.75
2022-09-07T00:05:28.281Z,12.73
2022-09-07T00:07:55.481Z,9.52
2022-09-07T00:10:23.347Z,15.43
2022-09-07T00:12:50.638Z,15.65
2022-09-07T00:15:18.208Z,14.40
2022-09-07T00:17:45.108Z,10.57
2022-09-07T00:20:13.370Z,21.50
2022-09-07T00:22:40.240Z,12.45
2022-09-07T00:25:07.853Z,14.43
2022-09-07T00:27:34.798Z,8.40
2022-09-07T00:30:01.622Z,15.82
2022-09-07T00:32:28.488Z,14.57
2022-09-07T00:34:55.332Z,9.88
2022-09-07T00:37:23.941Z,16.48
2022-09-07T00:39:51.974Z,10.80
2022-09-07T00:42:20.018Z,18.08
2022-09-07T00:45:10.183Z,14.23
2022-09-07T00:47:47.572Z,18.60
2022-09-07T00:50:20.275Z,19.92
2022-09-07T00:52:53.209Z,21.52
2022-09-07T00:55:20.856Z,27.05
2022-09-07T00:57:52.223Z,22.90
2022-09-07T01:00:19.705Z,21.40
2022-09-07T01:02:48.597Z,29.95
2022-09-07T01:05:22.820Z,19.25
2022-09-07T01:07:51.146Z,19.60
2022-09-07T01:10:18.816Z,23.88
2022-09-07T01:12:45.673Z,21.92
2022-09-07T01:15:12.659Z,23.35
2022-09-07T01:17:54.832Z,24.42
2022-09-07T01:20:54.012Z,24.05
2022-09-07T01:23:52.589Z,26.40
2022-09-07T01:26:52.986Z,24.50
2022-09-07T01:29:28.566Z,23.63
2022-09-07T01:32:02.419Z,26.02
2022-09-07T01:34:29.545Z,20.65
2022-09-07T01:37:01.772Z,22.13
2022-09-07T01:39:35.645Z,23.95
2022-09-07T01:42:08.652Z,21.23
2022-09-07T01:44:41.805Z,22.92
2022-09-07T01:47:15.406Z,20.02
2022-09-07T01:49:48.535Z,18.92
2022-09-07T01:52:22.039Z,16.52
2022-09-07T01:54:55.255Z,18.60
2022-09-07T01:57:29.478Z,14.95
2022-09-07T02:00:04.580Z,16.45
2022-09-07T02:02:38.238Z,19.90
2022-09-07T02:05:09.673Z,16.73
2022-09-07T02:07:42.491Z,17.08
2022-09-07T02:10:14.179Z,15.13
2022-09-07T02:12:47.669Z,17.90
2022-09-07T02:15:21.671Z,19.67
2022-09-07T02:17:52.252Z,23.40
2022-09-07T02:20:23.307Z,15.27
2022-09-07T02:22:55.731Z,16.23
2022-09-07T02:25:24.713Z,15.50
2022-09-07T02:27:55.564Z,25.80
2022-09-07T02:30:23.905Z,15.38
2022-09-07T02:32:50.960Z,18.98
2022-09-07T02:35:18.102Z,14.32
2022-09-07T02:37:45.537Z,17.33
2022-09-07T02:40:12.991Z,16.63
2022-09-07T02:42:39.956Z,18.58
2022-09-07T02:45:10.800Z,15.43
2022-09-07T02:48:01.456Z,21.52
2022-09-07T02:51:02.515Z,15.98
2022-09-07T02:54:03.633Z,12.20
2022-09-07T02:56:44.420Z,12.48
2022-09-07T02:59:27.362Z,14.57
2022-09-07T03:02:01.684Z,13.63
2022-09-07T03:04:40.792Z,15.27
2022-09-07T03:07:11.611Z,11.85
2022-09-07T03:09:43.570Z,12.05
2022-09-07T03:12:10.666Z,14.05
2022-09-07T03:14:40.113Z,21.83
2022-09-07T03:17:07.793Z,15.85
2022-09-07T03:19:36.195Z,14.30
2022-09-07T03:22:03.901Z,18.88
2022-09-07T03:24:31.189Z,15.57
2022-09-07T03:26:58.505Z,14.52
2022-09-07T03:29:25.508Z,22.30
2022-09-07T03:31:52.342Z,22.00
2022-09-07T03:34:19.253Z,22.92
2022-09-07T03:36:47.630Z,27.50
2022-09-07T03:39:14.566Z,19.52
2022-09-07T03:41:41.570Z,25.77
2022-09-07T03:44:08.785Z,24.38
2022-09-07T03:46:35.702Z,21.65
2022-09-07T03:49:02.802Z,20.67
2022-09-07T03:51:29.853Z,23.80
2022-09-07T03:54:00.399Z,26.83
2022-09-07T03:56:27.621Z,20.15
2022-09-07T03:58:55.073Z,25.30
2022-09-07T04:01:23.738Z,24.40
2022-09-07T04:03:51.539Z,20.45
2022-09-07T04:06:19.492Z,18.27
2022-09-07T04:08:46.920Z,22.67
2022-09-07T04:11:17.453Z,26.10
2022-09-07T04:13:44.705Z,22.13
2022-09-07T04:16:14.464Z,26.30
2022-09-07T04:18:41.418Z,24.42
2022-09-07T04:21:08.366Z,29.60
2022-09-07T04:23:37.573Z,21.77
2022-09-07T04:26:04.388Z,25.33
2022-09-07T04:28:38.310Z,26.13
2022-09-07T04:31:05.380Z,23.17
2022-09-07T04:33:32.619Z,23.88
2022-09-07T04:36:00.734Z,25.88
2022-09-07T04:38:28.297Z,23.10
2022-09-07T04:40:59.525Z,25.15
2022-09-07T04:43:26.583Z,27.73
2022-09-07T04:45:54.936Z,28.30
2022-09-07T04:48:21.991Z,24.30
2022-09-07T04:50:48.864Z,24.27
2022-09-07T04:53:15.728Z,33.42
2022-09-07T04:55:42.566Z,29.15
2022-09-07T04:58:09.798Z,23.45
2022-09-07T05:00:39.157Z,24.02
2022-09-07T05:03:07.421Z,26.13
2022-09-07T05:05:37.852Z,34.42
2022-09-07T05:08:04.827Z,26.65
2022-09-07T05:10:31.889Z,28.23
2022-09-07T05:12:58.752Z,32.13
2022-09-07T05:15:25.525Z,36.28
2022-09-07T05:17:52.368Z,37.20
2022-09-07T05:20:21.420Z,37.08
2022-09-07T05:22:48.387Z,37.35
2022-09-07T05:25:15.339Z,42.35
2022-09-07T05:27:42.452Z,64.72
2022-09-07T05:32:57.435Z,55.03
2022-09-07T05:35:25.715Z,52.05
2022-09-07T05:37:52.796Z,45.45
2022-09-07T05:40:19.682Z,45.75
2022-09-07T05:42:46.568Z,46.33
2022-09-07T05:45:13.512Z,58.63
2022-09-07T05:47:40.414Z,68.95
2022-09-07T05:50:09.202Z,48.85
2022-09-07T05:52:37.419Z,46.95
2022-09-07T05:55:19.614Z,51.40
2022-09-07T05:57:51.674Z,49.42
2022-09-07T06:00:21.631Z,46.42
2022-09-07T06:02:48.696Z,45.60
2022-09-07T06:05:15.688Z,49.72
2022-09-07T06:07:48.028Z,52.63
2022-09-07T06:13:02.153Z,56.78
2022-09-07T06:15:29.015Z,51.03
2022-09-07T06:17:55.950Z,50.28
2022-09-07T06:20:22.873Z,48.75
2022-09-07T06:22:51.021Z,50.45
2022-09-07T06:25:17.823Z,46.08
2022-09-07T06:27:48.593Z,49.58
2022-09-07T06:30:15.479Z,51.85
2022-09-07T06:35:14.759Z,49.10
2022-09-07T06:37:42.159Z,45.67
2022-09-07T06:40:11.726Z,50.53
2022-09-07T06:42:39.045Z,40.28
2022-09-07T06:45:06.750Z,42.72
2022-09-07T06:47:33.558Z,51.28
2022-09-07T06:50:00.377Z,39.13
2022-09-07T06:52:28.241Z,42.58
2022-09-07T06:57:24.200Z,44.90
2022-09-07T06:59:51.016Z,39.25
2022-09-07T07:02:17.804Z,40.05
2022-09-07T07:04:46.595Z,35.28
2022-09-07T07:07:14.068Z,34.80
2022-09-07T07:09:41.923Z,29.17
2022-09-07T07:12:08.864Z,32.65
2022-09-07T07:14:38.682Z,32.72
2022-09-07T07:17:08.103Z,30.02
2022-09-07T07:19:34.881Z,27.50
2022-09-07T07:24:48.491Z,21.20
2022-09-07T07:27:15.539Z,17.08
2022-09-07T07:29:43.744Z,23.83
2022-09-07T07:32:10.600Z,21.58
2022-09-07T07:34:37.482Z,19.73
2022-09-07T07:37:04.310Z,17.55
2022-09-07T07:42:18.441Z,16.05
2022-09-07T07:44:46.903Z,17.23
2022-09-07T07:47:13.980Z,19.25
2022-09-07T07:49:40.786Z,10.02
2022-09-07T07:54:54.309Z,10.20
2022-09-07T07:57:21.147Z,9.63
2022-09-07T07:59:49.564Z,15.50
2022-09-07T08:02:17.354Z,22.80
2022-09-07T08:04:44.456Z,8.48
2022-09-07T08:07:14.426Z,10.32
2022-09-07T08:09:42.495Z,10.68
2022-09-07T08:12:11.377Z,11.02
2022-09-07T08:14:42.408Z,8.68
2022-09-07T08:17:12.791Z,12.02
2022-09-07T08:19:57.335Z,11.75
2022-09-07T08:22:34.717Z,11.18
2022-09-07T08:25:01.924Z,17.67
2022-09-07T08:27:29.403Z,9.82
2022-09-07T08:29:56.399Z,14.40
2022-09-07T08:32:24.755Z,15.00
2022-09-07T08:34:51.598Z,12.25
2022-09-07T08:37:18.577Z,10.48
2022-09-07T08:39:45.360Z,12.13
2022-09-07T08:42:26.254Z,13.90
2022-09-07T08:44:57.827Z,9.75
2022-09-07T08:47:32.569Z,14.63
2022-09-07T08:50:04.731Z,14.65
2022-09-07T08:52:45.795Z,13.32
2022-09-07T08:55:19.019Z,14.38
2022-09-07T08:57:51.654Z,14.80
2022-09-07T09:00:19.235Z,13.10
2022-09-07T09:03:28.558Z,19.70
2022-09-07T09:05:44.987Z,11.13
2022-09-07T09:08:22.827Z,15.23
2022-09-07T09:10:58.576Z,14.30
2022-09-07T09:13:38.094Z,16.55
2022-09-07T09:16:11.419Z,14.43
2022-09-07T09:18:52.535Z,11.48
2022-09-07T09:21:20.267Z,14.75
2022-09-07T09:29:15.865Z,10.52
2022-09-07T09:31:42.813Z,15.07
2022-09-07T09:34:13.310Z,13.10
2022-09-07T09:36:46.601Z,14.10
2022-09-07T09:39:31.371Z,13.20
2022-09-07T09:42:01.933Z,13.95
2022-09-07T09:44:33.792Z,14.40
2022-09-07T09:49:51.531Z,19.33
2022-09-07T09:52:30.394Z,12.90
2022-09-07T09:55:17.230Z,10.13
2022-09-07T10:01:21.140Z,16.15
2022-09-07T10:06:18.674Z,15.77
2022-09-07T10:08:55.321Z,12.32
2022-09-07T10:14:29.617Z,8.93
2022-09-07T10:30:56.527Z,8.95
2022-09-07T10:33:34.458Z,13.50
2022-09-07T10:36:10.844Z,6.50
2022-09-07T10:38:45.099Z,7.93
2022-09-07T10:41:11.966Z,10.75
2022-09-07T10:43:44.986Z,13.10
2022-09-07T10:46:57.307Z,13.20
2022-09-07T10:49:28.193Z,7.75
2022-09-07T10:52:13.658Z,15.63
2022-09-07T10:54:48.677Z,11.43
2022-09-07T10:57:33.478Z,13.18
2022-09-07T11:00:10.537Z,12.80
2022-09-07T11:06:13.970Z,9.23
2022-09-07T11:09:19.385Z,7.53
2022-09-07T11:12:07.247Z,11.57
2022-09-07T11:14:41.541Z,13.20
2022-09-07T11:17:15.135Z,10.15
2022-09-07T11:19:49.171Z,8.35
2022-09-07T11:22:23.052Z,8.77
2022-09-07T11:27:47.355Z,6.47
2022-09-07T11:30:20.005Z,7.57
2022-09-07T11:32:54.138Z,8.43
2022-09-07T11:35:30.207Z,8.00
2022-09-07T11:38:03.794Z,9.73
2022-09-07T11:40:34.149Z,10.10
2022-09-07T11:43:11.569Z,10.25
2022-09-07T11:45:44.485Z,5.88
2022-09-07T11:48:19.608Z,6.57
2022-09-07T11:50:53.414Z,11.55
2022-09-07T11:53:24.307Z,8.20
2022-09-07T11:55:56.548Z,9.15
2022-09-07T11:58:42.544Z,10.55
2022-09-07T12:01:20.424Z,9.70
2022-09-07T12:04:24.725Z,13.90
2022-09-07T12:07:17.020Z,19.33
2022-09-07T12:09:57.270Z,9.63
2022-09-07T12:12:50.598Z,5.30
2022-09-07T12:15:30.288Z,10.57
2022-09-07T12:18:16.760Z,12.50
2022-09-07T12:20:45.414Z,6.35
2022-09-07T12:23:26.736Z,13.68
2022-09-07T12:26:32.166Z,10.13
2022-09-07T12:29:20.146Z,3.92
2022-09-07T12:34:59.399Z,17.27
2022-09-07T12:37:45.429Z,7.60
2022-09-07T12:40:46.137Z,13.43
2022-09-07T12:43:52.536Z,7.15
2022-09-07T12:46:41.778Z,6.90
2022-09-07T12:49:32.200Z,7.57
2022-09-07T12:52:15.125Z,5.20
2022-09-07T12:57:46.411Z,10.70
2022-09-07T13:00:20.497Z,10.20
2022-09-07T13:07:01.677Z,6.38
2022-09-07T13:09:23.817Z,6.60
2022-09-07T13:11:50.653Z,9.65
2022-09-07T13:14:23.259Z,12.70
2022-09-07T13:17:29.496Z,8.65
2022-09-07T13:20:21.373Z,16.30
2022-09-07T13:22:55.712Z,8.05
2022-09-07T13:25:45.669Z,3.67
2022-09-07T13:28:37.445Z,7.95
2022-09-07T13:31:27.832Z,7.05
2022-09-07T13:33:55.082Z,5.68
2022-09-07T13:36:39.015Z,5.57
2022-09-07T13:39:11.501Z,6.32
2022-09-07T13:41:43.345Z,11.00
2022-09-07T13:44:25.909Z,9.75
2022-09-07T13:47:02.917Z,10.18
2022-09-07T13:49:43.418Z,9.25
2022-09-07T13:52:15.766Z,7.05
2022-09-07T13:54:58.642Z,12.50
2022-09-07T13:57:32.232Z,9.60
2022-09-07T13:59:59.374Z,11.98
2022-09-07T14:02:32.304Z,12.45
2022-09-07T14:05:00.714Z,15.48
2022-09-07T14:07:29.227Z,8.32
2022-09-07T14:10:10.388Z,14.65
2022-09-07T14:12:43.727Z,9.00
2022-09-07T14:17:46.353Z,8.70
2022-09-07T14:20:14.602Z,8.57
2022-09-07T14:22:42.829Z,7.20
2022-09-07T14:25:16.337Z,5.90
2022-09-07T14:27:45.497Z,13.73
2022-09-07T14:30:21.988Z,16.48
2022-09-07T14:32:53.108Z,10.23
2022-09-07T14:35:22.507Z,8.77
2022-09-07T14:37:50.759Z,9.70
2022-09-07T14:40:21.807Z,14.32
2022-09-07T14:42:49.915Z,6.25
2022-09-07T14:45:19.138Z,19.15
2022-09-07T14:47:47.173Z,9.82
2022-09-07T14:50:21.279Z,8.70
2022-09-07T14:53:34.233Z,6.55
2022-09-07T14:55:39.399Z,17.02
2022-09-07T14:58:30.300Z,15.88
2022-09-07T15:03:59.167Z,7.30
2022-09-07T15:09:29.141Z,6.60
2022-09-07T15:12:04.338Z,8.23
2022-09-07T15:14:31.394Z,13.27
2022-09-07T15:19:47.167Z,8.65
2022-09-07T15:22:15.572Z,10.15
2022-09-07T15:24:42.273Z,5.88
2022-09-07T15:27:18.974Z,6.90
2022-09-07T15:29:45.817Z,9.63
2022-09-07T15:32:12.935Z,9.35
2022-09-07T15:34:39.765Z,6.80
2022-09-07T15:38:01.194Z,12.70
2022-09-07T15:39:55.694Z,6.07
2022-09-07T15:45:09.867Z,8.10
2022-09-07T15:47:47.985Z,7.82
2022-09-07T15:50:18.533Z,12.68
2022-09-07T15:52:46.435Z,6.47
2022-09-07T15:55:17.672Z,5.90
2022-09-07T15:57:49.213Z,10.95
2022-09-07T16:00:17.464Z,8.40
2022-09-07T16:05:31.646Z,7.18
2022-09-07T16:11:04.758Z,17.45
2022-09-07T16:13:32.685Z,7.05
2022-09-07T16:16:00.555Z,6.45
2022-09-07T16:18:31.382Z,8.70
2022-09-07T16:21:04.810Z,7.63
2022-09-07T16:23:31.557Z,6.80
2022-09-07T16:26:01.540Z,14.20
2022-09-07T16:28:29.231Z,12.52
2022-09-07T16:30:56.575Z,8.95
2022-09-07T16:33:31.279Z,7.63
2022-09-07T16:36:06.207Z,7.55
2022-09-07T16:38:49.054Z,14.63
2022-09-07T16:41:20.078Z,14.47
2022-09-07T16:43:47.133Z,10.30
2022-09-07T16:46:16.693Z,6.88
2022-09-07T16:48:44.114Z,9.52
2022-09-07T16:51:13.632Z,13.13
2022-09-07T16:53:40.633Z,10.95
2022-09-07T16:56:10.416Z,5.03
2022-09-07T16:58:40.493Z,9.38
2022-09-07T17:01:08.911Z,10.77
2022-09-07T17:03:36.439Z,18.48
2022-09-07T17:06:05.418Z,13.95
2022-09-07T17:08:33.694Z,8.45
2022-09-07T17:11:01.072Z,10.65
2022-09-07T17:13:28.380Z,10.10
2022-09-07T17:16:01.998Z,15.48
2022-09-07T17:21:16.611Z,14.10
2022-09-07T17:23:51.069Z,13.68
2022-09-07T17:26:22.455Z,10.27
2022-09-07T17:28:51.064Z,18.92
2022-09-07T17:34:08.778Z,13.80
2022-09-07T17:36:35.587Z,9.60
2022-09-07T17:39:19.132Z,7.63
2022-09-07T17:41:46.716Z,10.25
2022-09-07T17:44:13.594Z,7.88
2022-09-07T17:46:41.866Z,10.93
2022-09-07T17:49:12.346Z,9.77
2022-09-07T17:51:39.791Z,12.10
2022-09-07T17:54:11.474Z,8.25
2022-09-07T17:56:39.288Z,11.02
2022-09-07T18:01:54.696Z,11.90
2022-09-07T18:04:22.338Z,8.88
2022-09-07T18:06:49.258Z,12.88
2022-09-07T18:09:16.587Z,6.68
2022-09-07T18:11:48.136Z,5.32
2022-09-07T18:14:16.512Z,7.33
2022-09-07T18:16:45.888Z,8.25
2022-09-07T18:19:14.299Z,6.85
2022-09-07T18:21:43.088Z,10.25
2022-09-07T18:24:13.999Z,4.20
2022-09-07T18:26:41.128Z,9.55
2022-09-07T18:29:27.310Z,23.33
2022-09-07T18:31:55.495Z,9.05
2022-09-07T18:34:23.773Z,8.98
2022-09-07T18:36:50.693Z,6.57
2022-09-07T18:39:17.696Z,8.27
2022-09-07T18:41:44.453Z,7.15
2022-09-07T18:46:57.980Z,8.20
2022-09-07T18:49:26.315Z,9.77
2022-09-07T18:54:41.385Z,8.20
2022-09-07T18:57:08.377Z,13.05
2022-09-07T18:59:35.361Z,4.50
2022-09-07T19:02:04.667Z,8.23
2022-09-07T19:07:21.021Z,8.23
2022-09-07T19:09:48.435Z,11.25
2022-09-07T19:12:15.612Z,9.18
2022-09-07T19:14:42.492Z,12.43
2022-09-07T19:17:11.011Z,5.88
2022-09-07T19:19:39.708Z,5.93
2022-09-07T19:22:06.558Z,11.88
2022-09-07T19:24:33.540Z,3.97
2022-09-07T19:27:01.161Z,6.40
2022-09-07T19:29:29.173Z,5.35
2022-09-07T19:32:05.571Z,4.57
2022-09-07T19:34:32.834Z,4.30
2022-09-07T19:37:01.350Z,4.22
2022-09-07T19:39:28.321Z,4.22
2022-09-07T19:41:55.133Z,4.43
2022-09-07T19:44:22.129Z,9.23
2022-09-07T19:46:50.173Z,8.30
2022-09-07T19:49:17.105Z,2.95
2022-09-07T19:51:44.053Z,6.25
2022-09-07T19:54:13.648Z,3.55
2022-09-07T19:56:42.748Z,4.57
2022-09-07T19:59:09.807Z,8.65
2022-09-07T20:01:37.745Z,5.75
2022-09-07T20:04:06.815Z,3.50
2022-09-07T20:06:36.667Z,3.28
2022-09-07T20:09:03.623Z,2.83
2022-09-07T20:11:32.480Z,4.68
2022-09-07T20:13:59.587Z,2.63
2022-09-07T20:16:28.232Z,4.97
2022-09-07T20:18:55.276Z,6.82
2022-09-07T20:21:23.859Z,8.98
2022-09-07T20:23:51.267Z,6.13
2022-09-07T20:26:20.800Z,6.80
2022-09-07T20:29:05.873Z,4.55
2022-09-07T20:31:40.275Z,4.75
2022-09-07T20:34:07.111Z,8.35
2022-09-07T20:36:33.857Z,15.77
2022-09-07T20:39:00.946Z,5.13
2022-09-07T20:41:29.741Z,6.50
2022-09-07T20:44:00.030Z,6.75
2022-09-07T20:46:28.486Z,4.82
2022-09-07T20:48:55.938Z,4.63
2022-09-07T20:51:23.102Z,10.02
2022-09-07T20:53:50.334Z,11.68
2022-09-07T20:56:18.960Z,7.85
2022-09-07T20:58:47.045Z,9.38
2022-09-07T21:01:17.844Z,6.55
2022-09-07T21:03:49.008Z,10.63
2022-09-07T21:06:16.960Z,11.80
2022-09-07T21:08:45.616Z,10.55
2022-09-07T21:11:15.191Z,5.45
2022-09-07T21:13:42.789Z,7.65
2022-09-07T21:16:11.687Z,8.30
2022-09-07T21:18:41.037Z,11.60
2022-09-07T21:21:23.935Z,15.15
2022-09-07T21:23:55.737Z,10.70
2022-09-07T21:26:22.771Z,8.50
2022-09-07T21:28:54.360Z,7.22
2022-09-07T21:31:21.292Z,7.60
2022-09-07T21:33:54.300Z,9.35
2022-09-07T21:36:21.234Z,9.68
2022-09-07T21:38:48.380Z,11.43
2022-09-07T21:41:19.614Z,11.38
2022-09-07T21:43:46.716Z,8.32
2022-09-07T21:46:16.428Z,13.93
2022-09-07T21:48:43.947Z,17.05
2022-09-07T21:51:12.896Z,7.82
2022-09-07T21:53:40.138Z,9.35
2022-09-07T21:56:11.088Z,8.57
2022-09-07T21:58:38.588Z,6.38
2022-09-07T22:01:14.808Z,9.40
2022-09-07T22:03:55.325Z,8.38
2022-09-07T22:06:43.983Z,20.35
2022-09-07T22:09:14.492Z,8.52
2022-09-07T22:11:50.731Z,10.10
2022-09-07T22:14:35.625Z,12.57
2022-09-07T22:17:02.809Z,10.52
2022-09-07T22:19:40.112Z,11.45
2022-09-07T22:22:08.710Z,10.23
2022-09-07T22:24:35.481Z,8.95
2022-09-07T22:27:02.267Z,11.90
2022-09-07T22:29:29.123Z,9.13
2022-09-07T22:31:56.044Z,11.50
2022-09-07T22:34:22.884Z,7.95
2022-09-07T22:36:49.750Z,12.95
2022-09-07T22:39:18.923Z,16.30
2022-09-07T22:41:47.469Z,9.90
2022-09-07T22:44:16.028Z,11.70
2022-09-07T22:46:45.166Z,9.23
2022-09-07T22:49:13.180Z,19.75
2022-09-07T22:51:40.007Z,8.85
2022-09-07T22:54:07.247Z,6.80
2022-09-07T22:56:37.306Z,11.65
2022-09-07T22:59:07.399Z,8.85
2022-09-07T23:01:41.157Z,11.70
2022-09-07T23:04:11.572Z,17.58
2022-09-07T23:06:40.495Z,10.13
2022-09-07T23:09:10.341Z,18.52
2022-09-07T23:11:47.126Z,13.48
2022-09-07T23:14:16.304Z,10.57
2022-09-07T23:16:43.739Z,11.65
2022-09-07T23:19:22.261Z,13.52
2022-09-07T23:21:49.061Z,9.45
2022-09-07T23:24:17.977Z,11.27
2022-09-07T23:26:47.151Z,14.82
2022-09-07T23:29:15.145Z,9.85
2022-09-07T23:31:42.599Z,10.02
2022-09-07T23:34:09.599Z,11.80
2022-09-07T23:36:37.148Z,7.38
2022-09-07T23:39:04.271Z,13.65
2022-09-07T23:41:31.577Z,10.75
2022-09-07T23:44:00.512Z,7.80
2022-09-07T23:46:27.469Z,12.95
2022-09-07T23:48:54.318Z,10.63
2022-09-07T23:51:24.207Z,10.93
2022-09-07T23:53:51.954Z,7.10
2022-09-07T23:56:18.797Z,10.13
2022-09-07T23:58:45.591Z,12.82
